sensor_id;sensor_type;location;lat;lon;timestamp;pressure;altitude;pressure_sealevel;temperature;humidity
18795;BME280;29610;49.022;12.114;2023-02-15T00:01:24;99283.69;;;1.49;100.00
18795;BME280;29610;49.022;12.114;2023-02-15T00:03:54;99280.19;;;1.49;100.00
18795;BME280;29610;49.022;12.114;2023-02-15T00:06:23;99280.94;;;1.56;100.00
18795;BME280;29610;49.022;12.114;2023-02-15T00:08:52;99285.31;;;1.32;100.00
18795;BME280;29610;49.022;12.114;2023-02-15T00:11:22;99283.94;;;1.30;100.00
18795;BME280;29610;49.022;12.114;2023-02-15T00:14:06;99282.78;;;1.37;100.00
18795;BME280;29610;49.022;12.114;2023-02-15T00:16:36;99283.31;;;1.46;100.00
18795;BME280;29610;49.022;12.114;2023-02-15T00:19:08;99277.50;;;1.31;100.00
18795;BME280;29610;49.022;12.114;2023-02-15T00:21:38;99284.22;;;1.22;100.00
18795;BME280;29610;49.022;12.114;2023-02-15T00:24:10;99284.00;;;1.23;100.00
18795;BME280;29610;49.022;12.114;2023-02-15T00:26:41;99283.47;;;1.15;100.00
18795;BME280;29610;49.022;12.114;2023-02-15T00:29:12;99281.16;;;1.36;100.00
18795;BME280;29610;49.022;12.114;2023-02-15T00:31:42;99276.94;;;1.29;100.00
18795;BME280;29610;49.022;12.114;2023-02-15T00:34:15;99276.88;;;1.35;100.00
18795;BME280;29610;49.022;12.114;2023-02-15T00:36:44;99276.34;;;1.27;100.00
18795;BME280;29610;49.022;12.114;2023-02-15T00:39:16;99274.91;;;1.42;100.00
18795;BME280;29610;49.022;12.114;2023-02-15T00:41:45;99267.78;;;1.36;100.00
18795;BME280;29610;49.022;12.114;2023-02-15T00:44:14;99272.00;;;1.44;100.00
18795;BME280;29610;49.022;12.114;2023-02-15T00:46:43;99268.34;;;1.57;100.00
18795;BME280;29610;49.022;12.114;2023-02-15T00:49:13;99264.13;;;1.49;100.00
18795;BME280;29610;49.022;12.114;2023-02-15T00:51:42;99258.97;;;1.47;100.00
18795;BME280;29610;49.022;12.114;2023-02-15T00:54:10;99264.03;;;1.56;100.00
18795;BME280;29610;49.022;12.114;2023-02-15T00:56:39;99257.94;;;1.48;100.00
18795;BME280;29610;49.022;12.114;2023-02-15T00:59:08;99254.31;;;1.25;100.00
18795;BME280;29610;49.022;12.114;2023-02-15T01:01:37;99253.94;;;1.21;100.00
18795;BME280;29610;49.022;12.114;2023-02-15T01:04:06;99260.78;;;1.17;100.00
18795;BME280;29610;49.022;12.114;2023-02-15T01:06:36;99256.13;;;1.13;100.00
18795;BME280;29610;49.022;12.114;2023-02-15T01:09:04;99241.13;;;1.05;100.00
18795;BME280;29610;49.022;12.114;2023-02-15T01:11:33;99245.91;;;1.21;100.00
18795;BME280;29610;49.022;12.114;2023-02-15T01:14:02;99246.44;;;1.30;100.00
18795;BME280;29610;49.022;12.114;2023-02-15T01:16:31;99248.81;;;1.38;100.00
18795;BME280;29610;49.022;12.114;2023-02-15T01:19:00;99246.34;;;1.36;100.00
18795;BME280;29610;49.022;12.114;2023-02-15T01:21:31;99244.56;;;1.12;100.00
18795;BME280;29610;49.022;12.114;2023-02-15T01:24:04;99247.38;;;0.99;100.00
18795;BME280;29610;49.022;12.114;2023-02-15T01:26:32;99243.75;;;1.12;100.00
18795;BME280;29610;49.022;12.114;2023-02-15T01:29:02;99236.84;;;1.22;100.00
18795;BME280;29610;49.022;12.114;2023-02-15T01:31:31;99238.00;;;1.26;100.00
18795;BME280;29610;49.022;12.114;2023-02-15T01:34:00;99229.72;;;1.16;100.00
18795;BME280;29610;49.022;12.114;2023-02-15T01:36:28;99230.28;;;1.18;100.00
18795;BME280;29610;49.022;12.114;2023-02-15T01:38:57;99225.22;;;1.28;100.00
18795;BME280;29610;49.022;12.114;2023-02-15T01:41:27;99225.59;;;1.14;100.00
18795;BME280;29610;49.022;12.114;2023-02-15T01:43:59;99220.31;;;1.07;100.00
18795;BME280;29610;49.022;12.114;2023-02-15T01:46:36;99221.22;;;1.19;100.00
18795;BME280;29610;49.022;12.114;2023-02-15T01:49:13;99216.75;;;1.13;100.00
18795;BME280;29610;49.022;12.114;2023-02-15T01:51:45;99209.09;;;1.17;100.00
18795;BME280;29610;49.022;12.114;2023-02-15T01:54:20;99201.03;;;1.35;100.00
18795;BME280;29610;49.022;12.114;2023-02-15T01:56:57;99202.19;;;1.27;100.00
18795;BME280;29610;49.022;12.114;2023-02-15T01:59:27;99201.69;;;0.83;100.00
18795;BME280;29610;49.022;12.114;2023-02-15T02:01:59;99201.88;;;0.99;100.00
18795;BME280;29610;49.022;12.114;2023-02-15T02:04:35;99197.50;;;1.05;100.00
18795;BME280;29610;49.022;12.114;2023-02-15T02:07:08;99202.59;;;1.42;100.00
18795;BME280;29610;49.022;12.114;2023-02-15T02:09:38;99196.75;;;1.45;100.00
18795;BME280;29610;49.022;12.114;2023-02-15T02:12:09;99189.47;;;1.52;100.00
18795;BME280;29610;49.022;12.114;2023-02-15T02:14:40;99182.91;;;1.48;100.00
18795;BME280;29610;49.022;12.114;2023-02-15T02:17:16;99179.22;;;1.49;100.00
18795;BME280;29610;49.022;12.114;2023-02-15T02:20:27;99179.47;;;1.30;100.00
18795;BME280;29610;49.022;12.114;2023-02-15T02:23:29;99170.97;;;1.33;100.00
18795;BME280;29610;49.022;12.114;2023-02-15T02:27:05;99170.06;;;1.39;100.00
18795;BME280;29610;49.022;12.114;2023-02-15T02:30:18;99172.66;;;1.45;100.00
18795;BME280;29610;49.022;12.114;2023-02-15T02:33:23;99162.59;;;1.59;100.00
18795;BME280;29610;49.022;12.114;2023-02-15T02:36:11;99161.75;;;1.59;100.00
18795;BME280;29610;49.022;12.114;2023-02-15T02:38:58;99155.16;;;1.61;100.00
18795;BME280;29610;49.022;12.114;2023-02-15T02:41:37;99150.56;;;1.62;100.00
18795;BME280;29610;49.022;12.114;2023-02-15T02:44:16;99152.69;;;1.60;100.00
18795;BME280;29610;49.022;12.114;2023-02-15T02:46:53;99155.56;;;1.58;100.00
18795;BME280;29610;49.022;12.114;2023-02-15T02:49:33;99149.81;;;1.43;100.00
18795;BME280;29610;49.022;12.114;2023-02-15T02:52:04;99148.22;;;1.53;100.00
18795;BME280;29610;49.022;12.114;2023-02-15T02:54:35;99149.19;;;1.59;100.00
18795;BME280;29610;49.022;12.114;2023-02-15T02:57:07;99154.34;;;1.42;100.00
18795;BME280;29610;49.022;12.114;2023-02-15T02:59:45;99150.69;;;1.25;100.00
18795;BME280;29610;49.022;12.114;2023-02-15T03:02:21;99150.38;;;1.33;100.00
18795;BME280;29610;49.022;12.114;2023-02-15T03:04:59;99153.97;;;1.27;100.00
18795;BME280;29610;49.022;12.114;2023-02-15T03:07:33;99146.56;;;1.41;100.00
18795;BME280;29610;49.022;12.114;2023-02-15T03:10:07;99145.72;;;1.40;100.00
18795;BME280;29610;49.022;12.114;2023-02-15T03:12:39;99146.81;;;1.21;100.00
18795;BME280;29610;49.022;12.114;2023-02-15T03:15:13;99140.22;;;1.24;100.00
18795;BME280;29610;49.022;12.114;2023-02-15T03:17:47;99143.34;;;1.03;100.00
18795;BME280;29610;49.022;12.114;2023-02-15T03:20:23;99143.34;;;1.03;100.00
18795;BME280;29610;49.022;12.114;2023-02-15T03:22:57;99148.63;;;1.09;100.00
18795;BME280;29610;49.022;12.114;2023-02-15T03:25:32;99148.91;;;1.19;100.00
18795;BME280;29610;49.022;12.114;2023-02-15T03:28:06;99148.47;;;1.22;100.00
18795;BME280;29610;49.022;12.114;2023-02-15T03:30:38;99147.28;;;1.18;100.00
18795;BME280;29610;49.022;12.114;2023-02-15T03:33:10;99148.78;;;1.14;100.00
18795;BME280;29610;49.022;12.114;2023-02-15T03:35:48;99152.63;;;1.18;100.00
18795;BME280;29610;49.022;12.114;2023-02-15T03:38:24;99141.13;;;1.18;100.00
18795;BME280;29610;49.022;12.114;2023-02-15T03:40:58;99141.88;;;1.07;100.00
18795;BME280;29610;49.022;12.114;2023-02-15T03:43:49;99138.88;;;1.15;100.00
18795;BME280;29610;49.022;12.114;2023-02-15T03:46:24;99146.94;;;0.79;100.00
18795;BME280;29610;49.022;12.114;2023-02-15T03:49:02;99140.59;;;1.09;100.00
18795;BME280;29610;49.022;12.114;2023-02-15T03:51:37;99141.03;;;1.24;100.00
18795;BME280;29610;49.022;12.114;2023-02-15T03:54:09;99141.66;;;1.08;100.00
18795;BME280;29610;49.022;12.114;2023-02-15T03:56:42;99139.38;;;1.23;100.00
18795;BME280;29610;49.022;12.114;2023-02-15T03:59:31;99129.88;;;1.27;100.00
18795;BME280;29610;49.022;12.114;2023-02-15T04:02:22;99136.84;;;1.28;100.00
18795;BME280;29610;49.022;12.114;2023-02-15T04:04:52;99140.59;;;1.09;100.00
18795;BME280;29610;49.022;12.114;2023-02-15T04:07:22;99140.81;;;1.26;100.00
18795;BME280;29610;49.022;12.114;2023-02-15T04:09:50;99147.69;;;1.33;100.00
18795;BME280;29610;49.022;12.114;2023-02-15T04:12:37;99140.44;;;1.22;100.00
18795;BME280;29610;49.022;12.114;2023-02-15T04:15:08;99140.91;;;1.31;100.00
18795;BME280;29610;49.022;12.114;2023-02-15T04:17:57;99141.59;;;1.26;100.00
18795;BME280;29610;49.022;12.114;2023-02-15T04:20:26;99133.78;;;1.25;100.00
18795;BME280;29610;49.022;12.114;2023-02-15T04:23:13;99135.63;;;1.13;100.00
18795;BME280;29610;49.022;12.114;2023-02-15T04:26:03;99140.50;;;1.16;100.00
18795;BME280;29610;49.022;12.114;2023-02-15T04:28:31;99144.34;;;1.08;100.00
18795;BME280;29610;49.022;12.114;2023-02-15T04:31:00;99143.88;;;1.11;100.00
18795;BME280;29610;49.022;12.114;2023-02-15T04:33:29;99141.19;;;1.11;100.00
18795;BME280;29610;49.022;12.114;2023-02-15T04:35:57;99146.91;;;1.15;100.00
18795;BME280;29610;49.022;12.114;2023-02-15T04:38:28;99147.44;;;1.05;100.00
18795;BME280;29610;49.022;12.114;2023-02-15T04:40:56;99153.75;;;1.11;100.00
18795;BME280;29610;49.022;12.114;2023-02-15T04:43:25;99152.38;;;1.08;100.00
18795;BME280;29610;49.022;12.114;2023-02-15T04:45:53;99150.19;;;1.17;100.00
18795;BME280;29610;49.022;12.114;2023-02-15T04:48:22;99151.00;;;1.17;100.00
18795;BME280;29610;49.022;12.114;2023-02-15T04:50:50;99153.38;;;1.07;100.00
18795;BME280;29610;49.022;12.114;2023-02-15T04:53:19;99150.41;;;1.15;100.00
18795;BME280;29610;49.022;12.114;2023-02-15T04:55:49;99148.56;;;1.16;100.00
18795;BME280;29610;49.022;12.114;2023-02-15T04:58:18;99151.38;;;1.21;100.00
18795;BME280;29610;49.022;12.114;2023-02-15T05:00:46;99151.59;;;1.19;100.00
18795;BME280;29610;49.022;12.114;2023-02-15T05:03:15;99144.81;;;1.17;100.00
18795;BME280;29610;49.022;12.114;2023-02-15T05:05:45;99136.31;;;1.20;100.00
18795;BME280;29610;49.022;12.114;2023-02-15T05:08:14;99138.66;;;1.16;100.00
18795;BME280;29610;49.022;12.114;2023-02-15T05:10:43;99144.03;;;1.16;100.00
18795;BME280;29610;49.022;12.114;2023-02-15T05:13:13;99139.91;;;1.14;100.00
18795;BME280;29610;49.022;12.114;2023-02-15T05:15:46;99145.28;;;1.14;100.00
18795;BME280;29610;49.022;12.114;2023-02-15T05:18:16;99151.00;;;0.99;100.00
18795;BME280;29610;49.022;12.114;2023-02-15T05:20:45;99143.66;;;0.95;100.00
18795;BME280;29610;49.022;12.114;2023-02-15T05:23:14;99145.81;;;1.04;100.00
18795;BME280;29610;49.022;12.114;2023-02-15T05:25:47;99144.97;;;1.04;100.00
18795;BME280;29610;49.022;12.114;2023-02-15T05:28:37;99144.66;;;1.12;100.00
18795;BME280;29610;49.022;12.114;2023-02-15T05:31:10;99140.00;;;1.07;100.00
18795;BME280;29610;49.022;12.114;2023-02-15T05:33:40;99142.38;;;1.15;100.00
18795;BME280;29610;49.022;12.114;2023-02-15T05:36:09;99137.56;;;1.06;100.00
18795;BME280;29610;49.022;12.114;2023-02-15T05:38:39;99137.03;;;0.97;100.00
18795;BME280;29610;49.022;12.114;2023-02-15T05:41:09;99141.75;;;1.02;100.00
18795;BME280;29610;49.022;12.114;2023-02-15T05:43:40;99138.22;;;1.01;100.00
18795;BME280;29610;49.022;12.114;2023-02-15T05:46:09;99143.13;;;0.86;100.00
18795;BME280;29610;49.022;12.114;2023-02-15T05:48:37;99142.84;;;0.94;100.00
18795;BME280;29610;49.022;12.114;2023-02-15T05:51:08;99138.59;;;1.05;100.00
18795;BME280;29610;49.022;12.114;2023-02-15T05:53:40;99141.78;;;1.13;100.00
18795;BME280;29610;49.022;12.114;2023-02-15T05:56:11;99146.09;;;1.14;100.00
18795;BME280;29610;49.022;12.114;2023-02-15T05:58:42;99145.66;;;0.99;100.00
18795;BME280;29610;49.022;12.114;2023-02-15T06:01:15;99147.94;;;1.14;100.00
18795;BME280;29610;49.022;12.114;2023-02-15T06:03:45;99150.47;;;1.27;100.00
18795;BME280;29610;49.022;12.114;2023-02-15T06:06:15;99148.78;;;1.14;100.00
18795;BME280;29610;49.022;12.114;2023-02-15T06:08:44;99152.38;;;1.08;100.00
18795;BME280;29610;49.022;12.114;2023-02-15T06:11:12;99154.00;;;1.09;100.00
18795;BME280;29610;49.022;12.114;2023-02-15T06:13:42;99160.63;;;1.07;100.00
18795;BME280;29610;49.022;12.114;2023-02-15T06:16:11;99159.03;;;1.17;100.00
18795;BME280;29610;49.022;12.114;2023-02-15T06:18:39;99168.53;;;1.13;100.00
18795;BME280;29610;49.022;12.114;2023-02-15T06:21:08;99167.91;;;1.18;100.00
18795;BME280;29610;49.022;12.114;2023-02-15T06:23:36;99168.59;;;1.25;100.00
18795;BME280;29610;49.022;12.114;2023-02-15T06:26:05;99172.34;;;1.24;100.00
18795;BME280;29610;49.022;12.114;2023-02-15T06:28:34;99172.34;;;1.24;100.00
18795;BME280;29610;49.022;12.114;2023-02-15T06:31:05;99175.09;;;1.17;100.00
18795;BME280;29610;49.022;12.114;2023-02-15T06:33:40;99170.69;;;1.23;100.00
18795;BME280;29610;49.022;12.114;2023-02-15T06:36:27;99168.53;;;1.13;100.00
18795;BME280;29610;49.022;12.114;2023-02-15T06:38:57;99179.72;;;1.10;100.00
18795;BME280;29610;49.022;12.114;2023-02-15T06:41:26;99175.84;;;1.06;100.00
18795;BME280;29610;49.022;12.114;2023-02-15T06:43:55;99181.59;;;1.10;100.00
18795;BME280;29610;49.022;12.114;2023-02-15T06:46:24;99176.88;;;1.05;100.00
18795;BME280;29610;49.022;12.114;2023-02-15T06:48:53;99182.75;;;0.96;100.00
18795;BME280;29610;49.022;12.114;2023-02-15T06:51:22;99181.22;;;1.06;100.00
18795;BME280;29610;49.022;12.114;2023-02-15T06:53:50;99180.84;;;1.03;100.00
18795;BME280;29610;49.022;12.114;2023-02-15T06:56:19;99177.63;;;1.12;100.00
18795;BME280;29610;49.022;12.114;2023-02-15T06:58:48;99180.47;;;1.17;100.00
18795;BME280;29610;49.022;12.114;2023-02-15T07:01:17;99176.56;;;1.13;100.00
18795;BME280;29610;49.022;12.114;2023-02-15T07:03:47;99178.47;;;1.13;100.00
18795;BME280;29610;49.022;12.114;2023-02-15T07:06:16;99176.31;;;1.03;100.00
18795;BME280;29610;49.022;12.114;2023-02-15T07:08:44;99187.50;;;1.12;100.00
18795;BME280;29610;49.022;12.114;2023-02-15T07:11:13;99180.84;;;1.21;100.00
18795;BME280;29610;49.022;12.114;2023-02-15T07:14:05;99178.53;;;1.24;100.00
18795;BME280;29610;49.022;12.114;2023-02-15T07:16:33;99178.06;;;1.27;100.00
18795;BME280;29610;49.022;12.114;2023-02-15T07:19:03;99172.41;;;1.35;100.00
18795;BME280;29610;49.022;12.114;2023-02-15T07:21:34;99165.00;;;1.49;100.00
18795;BME280;29610;49.022;12.114;2023-02-15T07:24:04;99162.94;;;1.33;100.00
18795;BME280;29610;49.022;12.114;2023-02-15T07:26:33;99161.25;;;1.50;100.00
18795;BME280;29610;49.022;12.114;2023-02-15T07:29:02;99161.09;;;1.33;100.00
18795;BME280;29610;49.022;12.114;2023-02-15T07:31:31;99156.66;;;1.39;100.00
18795;BME280;29610;49.022;12.114;2023-02-15T07:34:00;99154.75;;;1.28;100.00
18795;BME280;29610;49.022;12.114;2023-02-15T07:36:32;99155.03;;;1.38;100.00
18795;BME280;29610;49.022;12.114;2023-02-15T07:39:01;99151.09;;;1.40;100.00
18795;BME280;29610;49.022;12.114;2023-02-15T07:41:30;99145.31;;;1.55;100.00
18795;BME280;29610;49.022;12.114;2023-02-15T07:43:59;99145.81;;;1.64;100.00
18795;BME280;29610;49.022;12.114;2023-02-15T07:46:27;99143.28;;;1.69;100.00
18795;BME280;29610;49.022;12.114;2023-02-15T07:48:57;99143.50;;;1.67;100.00
18795;BME280;29610;49.022;12.114;2023-02-15T07:51:26;99139.84;;;1.62;100.00
18795;BME280;29610;49.022;12.114;2023-02-15T07:53:57;99141.50;;;1.63;100.00
18795;BME280;29610;49.022;12.114;2023-02-15T07:56:26;99145.69;;;1.59;100.00
18795;BME280;29610;49.022;12.114;2023-02-15T07:58:54;99146.66;;;1.64;100.00
18795;BME280;29610;49.022;12.114;2023-02-15T08:01:29;99141.97;;;1.71;100.00
18795;BME280;29610;49.022;12.114;2023-02-15T08:03:58;99142.81;;;1.72;100.00
18795;BME280;29610;49.022;12.114;2023-02-15T08:06:31;99147.97;;;1.85;100.00
18795;BME280;29610;49.022;12.114;2023-02-15T08:09:04;99147.63;;;1.93;100.00
18795;BME280;29610;49.022;12.114;2023-02-15T08:11:35;99145.97;;;1.92;100.00
18795;BME280;29610;49.022;12.114;2023-02-15T08:14:10;99149.22;;;1.82;100.00
18795;BME280;29610;49.022;12.114;2023-02-15T08:16:41;99149.09;;;1.77;100.00
18795;BME280;29610;49.022;12.114;2023-02-15T08:19:13;99154.69;;;1.76;100.00
18795;BME280;29610;49.022;12.114;2023-02-15T08:21:45;99149.81;;;1.84;100.00
18795;BME280;29610;49.022;12.114;2023-02-15T08:24:18;99152.84;;;1.76;100.00
18795;BME280;29610;49.022;12.114;2023-02-15T08:26:48;99151.56;;;1.79;100.00
18795;BME280;29610;49.022;12.114;2023-02-15T08:29:21;99142.94;;;1.77;100.00
18795;BME280;29610;49.022;12.114;2023-02-15T08:31:53;99145.16;;;1.80;100.00
18795;BME280;29610;49.022;12.114;2023-02-15T08:34:23;99148.66;;;1.80;100.00
18795;BME280;29610;49.022;12.114;2023-02-15T08:36:52;99149.31;;;1.76;100.00
18795;BME280;29610;49.022;12.114;2023-02-15T08:39:22;99148.06;;;1.78;100.00
18795;BME280;29610;49.022;12.114;2023-02-15T08:41:50;99149.56;;;1.74;100.00
18795;BME280;29610;49.022;12.114;2023-02-15T08:44:20;99156.72;;;1.80;100.00
18795;BME280;29610;49.022;12.114;2023-02-15T08:46:50;99149.88;;;1.66;100.00
18795;BME280;29610;49.022;12.114;2023-02-15T08:49:20;99143.47;;;1.56;100.00
18795;BME280;29610;49.022;12.114;2023-02-15T08:51:50;99145.59;;;1.65;100.00
18795;BME280;29610;49.022;12.114;2023-02-15T08:54:21;99152.69;;;1.60;100.00
18795;BME280;29610;49.022;12.114;2023-02-15T08:56:50;99157.28;;;1.82;100.00
18795;BME280;29610;49.022;12.114;2023-02-15T08:59:21;99152.41;;;1.91;100.00
18795;BME280;29610;49.022;12.114;2023-02-15T09:01:51;99153.94;;;1.87;100.00
18795;BME280;29610;49.022;12.114;2023-02-15T09:04:21;99154.72;;;1.87;100.00
18795;BME280;29610;49.022;12.114;2023-02-15T09:06:51;99154.38;;;1.95;100.00
18795;BME280;29610;49.022;12.114;2023-02-15T09:09:22;99153.72;;;2.11;100.00
18795;BME280;29610;49.022;12.114;2023-02-15T09:11:51;99146.25;;;2.02;100.00
18795;BME280;29610;49.022;12.114;2023-02-15T09:14:26;99151.63;;;2.13;100.00
18795;BME280;29610;49.022;12.114;2023-02-15T09:16:55;99144.59;;;2.12;100.00
18795;BME280;29610;49.022;12.114;2023-02-15T09:19:25;99151.59;;;2.02;100.00
18795;BME280;29610;49.022;12.114;2023-02-15T09:21:54;99150.81;;;2.13;100.00
18795;BME280;29610;49.022;12.114;2023-02-15T09:24:24;99139.94;;;2.08;100.00
18795;BME280;29610;49.022;12.114;2023-02-15T09:26:53;99147.75;;;1.98;100.00
18795;BME280;29610;49.022;12.114;2023-02-15T09:29:22;99144.72;;;1.94;100.00
18795;BME280;29610;49.022;12.114;2023-02-15T09:31:51;99150.56;;;1.91;100.00
18795;BME280;29610;49.022;12.114;2023-02-15T09:34:22;99149.94;;;1.78;100.00
18795;BME280;29610;49.022;12.114;2023-02-15T09:36:52;99144.69;;;1.83;100.00
18795;BME280;29610;49.022;12.114;2023-02-15T09:39:24;99137.03;;;2.09;100.00
18795;BME280;29610;49.022;12.114;2023-02-15T09:42:24;99138.81;;;2.15;100.00
18795;BME280;29610;49.022;12.114;2023-02-15T09:45:17;99132.63;;;2.26;100.00
18795;BME280;29610;49.022;12.114;2023-02-15T09:48:33;99144.41;;;2.14;100.00
18795;BME280;29610;49.022;12.114;2023-02-15T09:51:28;99150.81;;;2.24;100.00
18795;BME280;29610;49.022;12.114;2023-02-15T09:54:22;99149.16;;;2.35;100.00
18795;BME280;29610;49.022;12.114;2023-02-15T09:57:02;99150.22;;;2.34;100.00
18795;BME280;29610;49.022;12.114;2023-02-15T09:59:42;99154.66;;;2.28;100.00
18795;BME280;29610;49.022;12.114;2023-02-15T10:02:36;99151.72;;;2.30;100.00
18795;BME280;29610;49.022;12.114;2023-02-15T10:05:24;99147.91;;;2.37;100.00
18795;BME280;29610;49.022;12.114;2023-02-15T10:11:13;99154.31;;;2.71;100.00
18795;BME280;29610;49.022;12.114;2023-02-15T10:14:27;99150.81;;;2.59;100.00
18795;BME280;29610;49.022;12.114;2023-02-15T10:17:24;99149.16;;;2.69;100.00
18795;BME280;29610;49.022;12.114;2023-02-15T10:20:13;99149.59;;;2.89;100.00
18795;BME280;29610;49.022;12.114;2023-02-15T10:23:08;99148.22;;;2.87;100.00
18795;BME280;29610;49.022;12.114;2023-02-15T10:25:46;99151.44;;;2.89;100.00
18795;BME280;29610;49.022;12.114;2023-02-15T10:28:18;99136.53;;;2.93;100.00
18795;BME280;29610;49.022;12.114;2023-02-15T10:30:50;99137.41;;;2.98;100.00
18795;BME280;29610;49.022;12.114;2023-02-15T10:33:38;99141.41;;;2.96;100.00
18795;BME280;29610;49.022;12.114;2023-02-15T10:36:34;99137.47;;;2.87;100.00
18795;BME280;29610;49.022;12.114;2023-02-15T10:39:19;99135.59;;;2.87;100.00
18795;BME280;29610;49.022;12.114;2023-02-15T10:41:59;99129.38;;;2.98;100.00
18795;BME280;29610;49.022;12.114;2023-02-15T10:44:47;99130.44;;;2.97;100.00
18795;BME280;29610;49.022;12.114;2023-02-15T10:47:53;99124.94;;;2.92;100.00
18795;BME280;29610;49.022;12.114;2023-02-15T10:50:42;99125.66;;;2.88;100.00
18795;BME280;29610;49.022;12.114;2023-02-15T10:53:43;99130.94;;;2.83;100.00
18795;BME280;29610;49.022;12.114;2023-02-15T10:56:23;99119.41;;;2.71;100.00
18795;BME280;29610;49.022;12.114;2023-02-15T10:59:24;99123.47;;;2.73;100.00
18795;BME280;29610;49.022;12.114;2023-02-15T11:02:00;99118.47;;;2.77;100.00
18795;BME280;29610;49.022;12.114;2023-02-15T11:04:48;99117.38;;;2.78;100.00
18795;BME280;29610;49.022;12.114;2023-02-15T11:07:24;99110.41;;;2.65;100.00
18795;BME280;29610;49.022;12.114;2023-02-15T11:10:05;99104.78;;;2.78;100.00
18795;BME280;29610;49.022;12.114;2023-02-15T11:12:36;99095.66;;;2.91;100.00
18795;BME280;29610;49.022;12.114;2023-02-15T11:15:16;99107.03;;;2.70;100.00
18795;BME280;29610;49.022;12.114;2023-02-15T11:17:53;99098.66;;;2.66;100.00
18795;BME280;29610;49.022;12.114;2023-02-15T11:20:32;99100.63;;;2.71;100.00
18795;BME280;29610;49.022;12.114;2023-02-15T11:23:02;99094.00;;;3.02;100.00
18795;BME280;29610;49.022;12.114;2023-02-15T11:25:33;99085.16;;;3.18;100.00
18795;BME280;29610;49.022;12.114;2023-02-15T11:28:06;99087.69;;;3.24;100.00
18795;BME280;29610;49.022;12.114;2023-02-15T11:30:45;99084.69;;;3.21;100.00
18795;BME280;29610;49.022;12.114;2023-02-15T11:33:24;99076.63;;;3.21;100.00
18795;BME280;29610;49.022;12.114;2023-02-15T11:36:03;99076.69;;;3.09;100.00
18795;BME280;29610;49.022;12.114;2023-02-15T11:38:34;99073.28;;;3.14;100.00
18795;BME280;29610;49.022;12.114;2023-02-15T11:41:10;99064.59;;;3.23;100.00
18795;BME280;29610;49.022;12.114;2023-02-15T11:43:46;99069.81;;;3.30;100.00
18795;BME280;29610;49.022;12.114;2023-02-15T11:46:18;99061.84;;;3.35;100.00
18795;BME280;29610;49.022;12.114;2023-02-15T11:48:49;99064.72;;;3.17;100.00
18795;BME280;29610;49.022;12.114;2023-02-15T11:51:22;99058.34;;;3.34;100.00
18795;BME280;29610;49.022;12.114;2023-02-15T11:53:51;99053.44;;;3.31;100.00
18795;BME280;29610;49.022;12.114;2023-02-15T11:56:24;99053.94;;;3.28;100.00
18795;BME280;29610;49.022;12.114;2023-02-15T11:58:58;99053.28;;;2.93;100.00
18795;BME280;29610;49.022;12.114;2023-02-15T12:01:33;99047.19;;;2.97;100.00
18795;BME280;29610;49.022;12.114;2023-02-15T12:04:09;99050.63;;;3.10;100.00
18795;BME280;29610;49.022;12.114;2023-02-15T12:06:49;99039.03;;;3.21;100.00
18795;BME280;29610;49.022;12.114;2023-02-15T12:09:34;99038.84;;;3.11;100.00
18795;BME280;29610;49.022;12.114;2023-02-15T12:12:29;99039.41;;;3.13;100.00
18795;BME280;29610;49.022;12.114;2023-02-15T12:15:00;99029.75;;;3.28;100.00
18795;BME280;29610;49.022;12.114;2023-02-15T12:17:33;99030.78;;;3.27;100.00
18795;BME280;29610;49.022;12.114;2023-02-15T12:20:21;99031.22;;;3.36;100.00
18795;BME280;29610;49.022;12.114;2023-02-15T12:23:00;99032.78;;;3.48;100.00
18795;BME280;29610;49.022;12.114;2023-02-15T12:25:37;99031.25;;;3.52;100.00
18795;BME280;29610;49.022;12.114;2023-02-15T12:28:25;99021.28;;;3.36;100.00
18795;BME280;29610;49.022;12.114;2023-02-15T12:30:57;99018.06;;;3.51;100.00
18795;BME280;29610;49.022;12.114;2023-02-15T12:33:31;99015.84;;;3.31;100.00
18795;BME280;29610;49.022;12.114;2023-02-15T12:36:12;99012.31;;;3.14;100.00
18795;BME280;29610;49.022;12.114;2023-02-15T12:39:16;99011.97;;;3.11;100.00
18795;BME280;29610;49.022;12.114;2023-02-15T12:42:00;99009.59;;;2.97;100.00
18795;BME280;29610;49.022;12.114;2023-02-15T12:44:31;99008.00;;;3.30;100.00
18795;BME280;29610;49.022;12.114;2023-02-15T12:47:03;99009.06;;;3.45;100.00
18795;BME280;29610;49.022;12.114;2023-02-15T12:49:34;99001.91;;;3.34;100.00
18795;BME280;29610;49.022;12.114;2023-02-15T12:52:06;99008.97;;;3.40;100.00
18795;BME280;29610;49.022;12.114;2023-02-15T12:54:39;99008.75;;;3.25;100.00
18795;BME280;29610;49.022;12.114;2023-02-15T12:57:27;99010.75;;;3.02;100.00
18795;BME280;29610;49.022;12.114;2023-02-15T12:59:58;99014.50;;;3.17;100.00
18795;BME280;29610;49.022;12.114;2023-02-15T13:02:35;99006.94;;;3.14;100.00
18795;BME280;29610;49.022;12.114;2023-02-15T13:05:18;99005.91;;;2.87;100.00
18795;BME280;29610;49.022;12.114;2023-02-15T13:07:52;98999.19;;;3.18;100.00
18795;BME280;29610;49.022;12.114;2023-02-15T13:10:28;98995.94;;;3.16;100.00
18795;BME280;29610;49.022;12.114;2023-02-15T13:12:57;98997.13;;;3.08;100.00
18795;BME280;29610;49.022;12.114;2023-02-15T13:15:35;98988.91;;;2.98;100.00
18795;BME280;29610;49.022;12.114;2023-02-15T13:18:14;98981.50;;;3.05;100.00
18795;BME280;29610;49.022;12.114;2023-02-15T13:20:44;98978.97;;;2.98;100.00
18795;BME280;29610;49.022;12.114;2023-02-15T13:23:26;98971.88;;;2.92;100.00
18795;BME280;29610;49.022;12.114;2023-02-15T13:26:04;98968.41;;;3.09;100.00
18795;BME280;29610;49.022;12.114;2023-02-15T13:28:39;98966.63;;;2.97;100.00
18795;BME280;29610;49.022;12.114;2023-02-15T13:31:14;98967.19;;;2.99;100.00
18795;BME280;29610;49.022;12.114;2023-02-15T13:33:48;98959.06;;;3.11;100.00